createdAt,value
2022-12-06T00:00:51.230Z,3.92
2022-12-06T00:01:53.442Z,5.70
2022-12-06T00:02:55.691Z,4.60
2022-12-06T00:04:01.454Z,4.63
2022-12-06T00:05:03.828Z,3.90
2022-12-06T00:06:12.205Z,4.30
2022-12-06T00:07:14.311Z,4.60
2022-12-06T00:08:16.518Z,4.60
2022-12-06T00:09:24.865Z,4.20
2022-12-06T00:10:27.061Z,3.50
2022-12-06T00:11:31.805Z,5.05
2022-12-06T00:12:33.923Z,3.95
2022-12-06T00:13:38.921Z,4.32
2022-12-06T00:14:41.083Z,4.57
2022-12-06T00:15:43.269Z,5.22
2022-12-06T00:16:46.150Z,4.93
2022-12-06T00:17:48.332Z,4.20
2022-12-06T00:18:50.908Z,4.72
2022-12-06T00:19:52.997Z,4.43
2022-12-06T00:20:55.109Z,4.57
2022-12-06T00:21:57.244Z,4.80
2022-12-06T00:22:59.411Z,4.80
2022-12-06T00:24:05.268Z,5.72
2022-12-06T00:25:07.659Z,4.93
2022-12-06T00:26:10.318Z,5.05
2022-12-06T00:27:12.681Z,3.97
2022-12-06T00:28:14.818Z,4.65
2022-12-06T00:29:20.379Z,5.15
2022-12-06T00:30:22.525Z,5.53
2022-12-06T00:31:27.165Z,5.13
2022-12-06T00:32:29.416Z,5.10
2022-12-06T00:33:32.233Z,5.13
2022-12-06T00:34:34.428Z,5.20
2022-12-06T00:35:36.537Z,4.75
2022-12-06T00:36:41.230Z,5.05
2022-12-06T00:37:43.356Z,5.45
2022-12-06T00:38:46.345Z,4.90
2022-12-06T00:39:48.496Z,5.30
2022-12-06T00:40:50.957Z,5.78
2022-12-06T00:41:56.248Z,4.63
2022-12-06T00:42:58.404Z,5.22
2022-12-06T00:44:00.802Z,5.00
2022-12-06T00:45:03.332Z,5.00
2022-12-06T00:46:08.066Z,5.70
2022-12-06T00:47:10.304Z,4.55
2022-12-06T00:48:12.457Z,6.20
2022-12-06T00:49:14.660Z,4.72
2022-12-06T00:50:16.977Z,4.55
2022-12-06T00:51:20.530Z,4.82
2022-12-06T00:52:22.662Z,4.88
2022-12-06T00:53:26.038Z,5.05
2022-12-06T00:54:28.399Z,5.25
2022-12-06T00:55:30.536Z,5.68
2022-12-06T00:56:34.666Z,4.82
2022-12-06T00:57:36.818Z,4.75
2022-12-06T00:58:39.639Z,5.35
2022-12-06T00:59:41.716Z,5.22
2022-12-06T01:00:44.105Z,5.18
2022-12-06T01:01:46.299Z,4.50
2022-12-06T01:02:48.532Z,5.18
2022-12-06T01:03:53.521Z,4.43
2022-12-06T01:04:55.752Z,4.85
2022-12-06T01:05:57.844Z,4.13
2022-12-06T01:07:00.305Z,5.15
2022-12-06T01:08:02.511Z,6.32
2022-12-06T01:09:08.247Z,5.00
2022-12-06T01:10:10.885Z,4.05
2022-12-06T01:11:16.008Z,6.10
2022-12-06T01:12:19.337Z,5.25
2022-12-06T01:13:21.671Z,4.53
2022-12-06T01:14:24.725Z,4.70
2022-12-06T01:15:26.888Z,5.43
2022-12-06T01:16:31.191Z,4.55
2022-12-06T01:17:35.197Z,4.40
2022-12-06T01:18:38.258Z,4.60
2022-12-06T01:19:40.498Z,4.55
2022-12-06T01:20:42.629Z,4.70
2022-12-06T01:21:44.866Z,4.72
2022-12-06T01:22:46.984Z,5.15
2022-12-06T01:23:50.085Z,4.25
2022-12-06T01:24:52.190Z,5.30
2022-12-06T01:25:54.321Z,4.72
2022-12-06T01:26:56.453Z,5.13
2022-12-06T01:27:59.439Z,5.18
2022-12-06T01:29:03.048Z,4.25
2022-12-06T01:30:06.746Z,5.85
2022-12-06T01:31:08.973Z,5.18
2022-12-06T01:32:11.227Z,4.63
2022-12-06T01:33:13.324Z,3.85
2022-12-06T01:34:17.020Z,5.00
2022-12-06T01:35:19.214Z,5.00
2022-12-06T01:36:25.620Z,4.82
2022-12-06T01:37:27.765Z,5.00
2022-12-06T01:38:30.157Z,5.25
2022-12-06T01:39:32.492Z,4.82
2022-12-06T01:40:46.114Z,4.30
2022-12-06T01:41:48.295Z,5.38
2022-12-06T01:42:50.603Z,4.63
2022-12-06T01:43:54.201Z,4.93
2022-12-06T01:44:58.168Z,5.32
2022-12-06T01:46:06.422Z,5.70
2022-12-06T01:47:23.488Z,5.85
2022-12-06T01:48:26.609Z,4.85
2022-12-06T01:49:34.516Z,5.78
2022-12-06T01:50:39.501Z,4.30
2022-12-06T01:51:45.866Z,5.13
2022-12-06T01:52:55.108Z,5.05
2022-12-06T01:53:59.373Z,4.40
2022-12-06T01:55:03.357Z,4.72
2022-12-06T01:56:06.349Z,4.90
2022-12-06T01:57:11.120Z,5.38
2022-12-06T01:58:18.490Z,4.95
2022-12-06T01:59:22.515Z,5.68
2022-12-06T02:00:24.698Z,5.85
2022-12-06T02:01:30.105Z,5.80
2022-12-06T02:02:32.544Z,4.93
2022-12-06T02:03:34.902Z,5.18
2022-12-06T02:04:38.007Z,5.78
2022-12-06T02:05:41.323Z,5.15
2022-12-06T02:06:44.320Z,5.63
2022-12-06T02:07:47.636Z,4.95
2022-12-06T02:08:52.082Z,4.68
2022-12-06T02:09:55.001Z,5.45
2022-12-06T02:10:58.548Z,5.40
2022-12-06T02:12:44.059Z,4.90
2022-12-06T02:13:49.745Z,5.35
2022-12-06T02:14:54.362Z,4.72
2022-12-06T02:15:56.475Z,6.20
2022-12-06T02:17:07.597Z,4.40
2022-12-06T02:18:20.014Z,5.40
2022-12-06T02:19:34.265Z,5.75
2022-12-06T02:20:45.996Z,5.32
2022-12-06T02:22:03.006Z,5.85
2022-12-06T02:23:30.679Z,4.88
2022-12-06T02:24:47.973Z,5.30
2022-12-06T02:26:08.785Z,4.68
2022-12-06T02:27:37.529Z,4.60
2022-12-06T02:28:48.527Z,4.35
2022-12-06T02:29:53.286Z,4.47
2022-12-06T02:31:02.669Z,4.93
2022-12-06T02:32:13.376Z,4.57
2022-12-06T02:33:25.322Z,4.75
2022-12-06T02:35:12.984Z,5.10
2022-12-06T02:36:40.382Z,5.22
2022-12-06T02:37:56.531Z,4.15
2022-12-06T02:39:28.539Z,4.93
2022-12-06T02:40:39.670Z,4.88
2022-12-06T02:41:49.725Z,3.92
2022-12-06T02:42:57.197Z,4.30
2022-12-06T02:44:20.620Z,4.13
2022-12-06T02:45:28.913Z,3.92
2022-12-06T02:46:35.419Z,3.60
2022-12-06T02:47:38.798Z,4.15
2022-12-06T02:48:42.890Z,4.32
2022-12-06T02:49:50.090Z,4.15
2022-12-06T02:50:59.137Z,4.85
2022-12-06T02:52:02.315Z,4.47
2022-12-06T02:53:07.971Z,4.03
2022-12-06T02:54:11.698Z,3.90
2022-12-06T02:55:15.632Z,4.20
2022-12-06T02:56:18.741Z,4.60
2022-12-06T02:57:34.597Z,3.58
2022-12-06T02:58:38.155Z,4.30
2022-12-06T02:59:50.003Z,3.03
2022-12-06T03:01:00.957Z,3.15
2022-12-06T03:02:06.744Z,2.92
2022-12-06T03:03:31.440Z,3.45
2022-12-06T03:05:05.882Z,3.55
2022-12-06T03:06:29.486Z,3.60
2022-12-06T03:07:40.530Z,3.55
2022-12-06T03:09:19.832Z,3.63
2022-12-06T03:10:46.854Z,2.88
2022-12-06T03:12:12.132Z,2.78
2022-12-06T03:13:37.962Z,3.47
2022-12-06T03:15:07.165Z,3.08
2022-12-06T03:16:32.597Z,3.22
2022-12-06T03:17:57.851Z,3.22
2022-12-06T03:19:18.710Z,3.55
2022-12-06T03:20:51.796Z,3.22
2022-12-06T03:22:00.790Z,3.58
2022-12-06T03:23:07.067Z,3.60
2022-12-06T03:24:14.599Z,3.60
2022-12-06T03:25:17.164Z,3.47
2022-12-06T03:26:25.161Z,3.03
2022-12-06T03:27:30.192Z,3.65
2022-12-06T03:28:34.887Z,3.20
2022-12-06T03:29:41.317Z,3.17
2022-12-06T03:30:49.144Z,4.20
2022-12-06T03:31:52.516Z,4.22
2022-12-06T03:32:55.227Z,3.10
2022-12-06T03:34:02.671Z,3.72
2022-12-06T03:35:09.922Z,3.67
2022-12-06T03:36:14.999Z,4.10
2022-12-06T03:37:21.684Z,3.95
2022-12-06T03:38:35.531Z,3.45
2022-12-06T03:39:41.118Z,3.42
2022-12-06T03:40:47.416Z,3.42
2022-12-06T03:41:57.509Z,3.78
2022-12-06T03:43:00.370Z,3.42
2022-12-06T03:44:02.593Z,3.33
2022-12-06T03:45:06.054Z,3.58
2022-12-06T03:46:17.836Z,3.38
2022-12-06T03:47:28.240Z,3.85
2022-12-06T03:48:40.639Z,4.07
2022-12-06T03:49:56.084Z,3.53
2022-12-06T03:51:04.046Z,2.95
2022-12-06T03:52:06.639Z,3.25
2022-12-06T03:53:08.925Z,4.20
2022-12-06T03:54:12.012Z,3.45
2022-12-06T03:55:14.180Z,3.38
2022-12-06T03:56:16.472Z,3.90
2022-12-06T03:57:18.596Z,3.80
2022-12-06T03:58:21.048Z,3.53
2022-12-06T03:59:23.178Z,3.65
2022-12-06T04:00:25.319Z,3.50
2022-12-06T04:01:27.486Z,3.10
2022-12-06T04:02:29.620Z,3.55
2022-12-06T04:03:31.805Z,3.08
2022-12-06T04:04:33.978Z,3.75
2022-12-06T04:05:36.096Z,4.43
2022-12-06T04:06:38.217Z,3.28
2022-12-06T04:07:40.427Z,2.58
2022-12-06T04:08:42.593Z,3.10
2022-12-06T04:09:56.290Z,3.70
2022-12-06T04:10:58.624Z,3.70
2022-12-06T04:12:00.726Z,3.42
2022-12-06T04:13:02.927Z,3.00
2022-12-06T04:14:05.045Z,3.83
2022-12-06T04:15:09.184Z,2.90
2022-12-06T04:16:29.943Z,3.22
2022-12-06T04:17:50.624Z,2.65
2022-12-06T04:18:52.734Z,3.15
2022-12-06T04:19:54.851Z,2.97
2022-12-06T04:21:23.054Z,2.80
2022-12-06T04:22:43.789Z,3.28
2022-12-06T04:23:49.185Z,3.55
2022-12-06T04:24:51.278Z,2.78
2022-12-06T04:25:53.460Z,3.63
2022-12-06T04:27:15.540Z,2.83
2022-12-06T04:28:36.330Z,3.38
2022-12-06T04:29:57.188Z,2.45
2022-12-06T04:32:43.117Z,3.25
2022-12-06T04:34:04.007Z,3.05
2022-12-06T04:35:25.012Z,3.28
2022-12-06T04:38:05.926Z,3.05
2022-12-06T04:39:08.157Z,3.40
2022-12-06T04:40:10.850Z,3.15
2022-12-06T04:41:33.672Z,2.92
2022-12-06T04:42:59.077Z,3.58
2022-12-06T04:44:01.207Z,3.05
2022-12-06T04:45:05.548Z,4.43
2022-12-06T04:46:09.207Z,3.72
2022-12-06T04:47:11.471Z,3.08
2022-12-06T04:48:13.562Z,3.28
2022-12-06T04:49:15.708Z,3.63
2022-12-06T04:50:17.811Z,3.67
2022-12-06T04:51:20.223Z,3.53
2022-12-06T04:52:22.400Z,3.80
2022-12-06T04:53:24.557Z,3.42
2022-12-06T04:54:27.225Z,4.35
2022-12-06T04:55:29.316Z,4.40
2022-12-06T04:56:31.547Z,4.93
2022-12-06T04:57:33.729Z,3.70
2022-12-06T04:58:35.901Z,4.05
2022-12-06T04:59:40.103Z,4.43
2022-12-06T05:00:43.703Z,4.13
2022-12-06T05:01:46.054Z,4.03
2022-12-06T05:02:48.155Z,3.80
2022-12-06T05:03:50.336Z,4.30
2022-12-06T05:04:52.462Z,4.55
2022-12-06T05:05:54.728Z,4.72
2022-12-06T05:06:56.825Z,4.75
2022-12-06T05:07:58.984Z,4.30
2022-12-06T05:09:01.183Z,4.30
2022-12-06T05:10:03.956Z,3.55
2022-12-06T05:11:06.163Z,3.95
2022-12-06T05:12:08.671Z,3.85
2022-12-06T05:13:10.800Z,4.47
2022-12-06T05:14:12.934Z,3.97
2022-12-06T05:15:16.055Z,4.50
2022-12-06T05:16:18.406Z,4.50
2022-12-06T05:17:20.547Z,3.78
2022-12-06T05:18:23.113Z,3.97
2022-12-06T05:19:25.404Z,3.85
2022-12-06T05:20:27.546Z,4.97
2022-12-06T05:21:29.703Z,4.40
2022-12-06T05:22:34.856Z,4.15
2022-12-06T05:23:37.027Z,5.20
2022-12-06T05:24:39.168Z,3.88
2022-12-06T05:25:41.566Z,3.45
2022-12-06T05:26:43.710Z,3.70
2022-12-06T05:27:45.870Z,4.97
2022-12-06T05:28:48.998Z,4.15
2022-12-06T05:29:51.120Z,4.82
2022-12-06T05:30:53.278Z,3.80
2022-12-06T05:31:55.505Z,4.57
2022-12-06T05:32:57.739Z,4.07
2022-12-06T05:33:59.905Z,3.88
2022-12-06T05:35:02.029Z,3.50
2022-12-06T05:36:15.638Z,3.95
2022-12-06T05:37:17.769Z,3.42
2022-12-06T05:38:20.784Z,3.42
2022-12-06T05:39:23.110Z,3.88
2022-12-06T05:40:25.259Z,4.05
2022-12-06T05:41:27.487Z,4.60
2022-12-06T05:42:29.583Z,4.28
2022-12-06T05:43:32.225Z,3.30
2022-12-06T05:44:34.569Z,3.58
2022-12-06T05:45:38.057Z,5.00
2022-12-06T05:46:40.267Z,3.30
2022-12-06T05:47:42.399Z,3.80
2022-12-06T05:48:44.964Z,4.30
2022-12-06T05:49:47.175Z,4.53
2022-12-06T05:50:50.088Z,4.05
2022-12-06T05:51:52.329Z,3.60
2022-12-06T05:52:55.326Z,4.18
2022-12-06T05:53:57.670Z,3.92
2022-12-06T05:55:00.080Z,3.05
2022-12-06T05:56:07.341Z,4.75
2022-12-06T05:57:09.486Z,5.65
2022-12-06T05:58:12.631Z,4.15
2022-12-06T05:59:14.746Z,4.28
2022-12-06T06:00:17.760Z,3.58
2022-12-06T06:01:19.873Z,3.85
2022-12-06T06:02:22.378Z,5.50
2022-12-06T06:03:24.688Z,3.72
2022-12-06T06:04:26.861Z,3.85
2022-12-06T06:05:28.988Z,3.35
2022-12-06T06:06:31.143Z,4.28
2022-12-06T06:07:33.337Z,3.72
2022-12-06T06:08:35.479Z,3.38
2022-12-06T06:09:37.592Z,4.28
2022-12-06T06:10:39.897Z,3.63
2022-12-06T06:11:41.997Z,4.40
2022-12-06T06:12:44.849Z,3.33
2022-12-06T06:13:47.190Z,3.95
2022-12-06T06:14:49.423Z,3.53
2022-12-06T06:15:51.962Z,4.05
2022-12-06T06:16:54.148Z,4.63
2022-12-06T06:17:56.795Z,3.65
2022-12-06T06:18:58.881Z,3.63
2022-12-06T06:20:05.598Z,3.47
2022-12-06T06:21:08.052Z,4.50
2022-12-06T06:22:10.152Z,3.33
2022-12-06T06:23:12.257Z,3.60
2022-12-06T06:24:14.340Z,3.88
2022-12-06T06:25:16.520Z,2.70
2022-12-06T06:26:18.676Z,4.13
2022-12-06T06:27:20.761Z,3.85
2022-12-06T06:28:23.746Z,4.28
2022-12-06T06:29:25.864Z,3.92
2022-12-06T06:30:28.125Z,3.85
2022-12-06T06:31:30.345Z,3.75
2022-12-06T06:32:32.454Z,4.07
2022-12-06T06:33:34.624Z,4.22
2022-12-06T06:34:36.710Z,4.22
2022-12-06T06:35:39.965Z,4.05
2022-12-06T06:36:45.717Z,3.45
2022-12-06T06:37:48.317Z,4.32
2022-12-06T06:38:50.492Z,3.35
2022-12-06T06:39:52.782Z,4.53
2022-12-06T06:40:54.996Z,3.53
2022-12-06T06:41:57.105Z,3.70
2022-12-06T06:43:17.914Z,4.50
2022-12-06T06:44:20.220Z,3.45
2022-12-06T06:45:28.364Z,3.97
2022-12-06T06:46:31.243Z,4.43
2022-12-06T06:47:33.988Z,4.50
2022-12-06T06:48:38.933Z,4.18
2022-12-06T06:49:41.267Z,4.53
2022-12-06T06:50:43.386Z,4.18
2022-12-06T06:51:45.813Z,3.95
2022-12-06T06:52:48.184Z,4.22
2022-12-06T06:53:50.308Z,4.03
2022-12-06T06:54:52.569Z,4.55
2022-12-06T06:55:55.176Z,4.57
2022-12-06T06:56:57.373Z,4.03
2022-12-06T06:57:59.508Z,4.70
2022-12-06T06:59:01.722Z,4.50
2022-12-06T07:00:05.162Z,4.93
2022-12-06T07:01:09.243Z,4.38
2022-12-06T07:02:16.889Z,3.90
2022-12-06T07:03:20.308Z,4.60
2022-12-06T07:04:22.659Z,5.20
2022-12-06T07:05:24.858Z,3.97
2022-12-06T07:06:27.025Z,4.88
2022-12-06T07:07:29.166Z,4.40
2022-12-06T07:08:32.132Z,4.18
2022-12-06T07:09:34.757Z,5.05
2022-12-06T07:10:36.885Z,4.78
2022-12-06T07:11:39.127Z,4.15
2022-12-06T07:12:41.269Z,4.32
2022-12-06T07:13:49.498Z,4.35
2022-12-06T07:14:54.661Z,4.80
2022-12-06T07:15:58.902Z,5.13
2022-12-06T07:17:01.192Z,5.53
2022-12-06T07:18:03.464Z,4.47
2022-12-06T07:19:09.049Z,5.20
2022-12-06T07:20:11.670Z,4.60
2022-12-06T07:21:16.439Z,4.47
2022-12-06T07:22:18.544Z,4.25
2022-12-06T07:23:20.756Z,4.60
2022-12-06T07:24:22.973Z,5.22
2022-12-06T07:25:25.109Z,4.72
2022-12-06T07:26:28.952Z,5.43
2022-12-06T07:27:36.733Z,5.05
2022-12-06T07:28:41.029Z,5.30
2022-12-06T07:29:43.166Z,4.95
2022-12-06T07:30:45.422Z,4.53
2022-12-06T07:31:47.629Z,4.88
2022-12-06T07:32:49.859Z,4.85
2022-12-06T07:33:55.927Z,6.60
2022-12-06T07:34:58.085Z,5.13
2022-12-06T07:36:15.623Z,4.93
2022-12-06T07:37:20.411Z,5.53
2022-12-06T07:38:22.555Z,5.45
2022-12-06T07:39:25.233Z,4.40
2022-12-06T07:40:55.979Z,5.32
2022-12-06T07:42:08.234Z,4.45
2022-12-06T07:43:34.996Z,4.25
2022-12-06T07:45:01.420Z,4.15
2022-12-06T07:46:10.781Z,4.90
2022-12-06T07:47:12.924Z,4.90
2022-12-06T07:48:15.225Z,3.85
2022-12-06T07:49:18.536Z,4.78
2022-12-06T07:50:22.750Z,5.68
2022-12-06T07:51:24.889Z,4.72
2022-12-06T07:52:31.386Z,4.30
2022-12-06T07:53:33.481Z,5.30
2022-12-06T07:54:35.685Z,5.07
2022-12-06T07:55:37.850Z,4.25
2022-12-06T07:56:40.584Z,4.32
2022-12-06T07:57:44.218Z,4.63
2022-12-06T07:58:46.556Z,4.30
2022-12-06T07:59:48.697Z,4.70
2022-12-06T08:00:50.976Z,4.38
2022-12-06T08:01:53.965Z,4.50
2022-12-06T08:02:56.161Z,4.65
2022-12-06T08:04:02.636Z,4.75
2022-12-06T08:05:05.152Z,4.07
2022-12-06T08:06:08.473Z,4.85
2022-12-06T08:07:10.629Z,4.85
2022-12-06T08:08:12.782Z,5.10
2022-12-06T08:09:15.032Z,4.28
2022-12-06T08:10:17.390Z,4.97
2022-12-06T08:11:20.612Z,4.22
2022-12-06T08:12:23.327Z,4.65
2022-12-06T08:13:25.447Z,4.22
2022-12-06T08:14:27.912Z,4.32
2022-12-06T08:15:30.053Z,3.83
2022-12-06T08:16:32.276Z,4.00
2022-12-06T08:17:34.479Z,3.92
2022-12-06T08:18:37.443Z,4.50
2022-12-06T08:19:39.613Z,3.65
2022-12-06T08:20:41.740Z,4.03
2022-12-06T08:21:44.008Z,4.13
2022-12-06T08:22:46.135Z,4.90
2022-12-06T08:23:48.237Z,4.03
2022-12-06T08:24:50.380Z,4.90
2022-12-06T08:26:02.469Z,4.45
2022-12-06T08:27:04.657Z,3.70
2022-12-06T08:28:06.958Z,4.10
2022-12-06T08:29:09.165Z,3.95
2022-12-06T08:30:11.487Z,4.57
2022-12-06T08:31:17.140Z,4.57
2022-12-06T08:32:19.493Z,4.38
2022-12-06T08:33:24.652Z,4.78
2022-12-06T08:34:27.946Z,4.90
2022-12-06T08:35:30.114Z,3.70
2022-12-06T08:36:32.288Z,3.78
2022-12-06T08:37:34.963Z,3.00
2022-12-06T08:38:38.183Z,3.30
2022-12-06T08:39:40.319Z,3.60
2022-12-06T08:40:42.871Z,3.92
2022-12-06T08:41:58.221Z,2.67
2022-12-06T08:43:00.374Z,2.90
2022-12-06T08:44:04.277Z,3.72
2022-12-06T08:45:06.874Z,3.60
2022-12-06T08:46:08.991Z,3.75
2022-12-06T08:47:11.284Z,4.32
2022-12-06T08:48:13.536Z,3.92
2022-12-06T08:49:16.895Z,3.72
2022-12-06T08:50:19.017Z,3.85
2022-12-06T08:51:21.592Z,3.72
2022-12-06T08:52:23.765Z,4.22
2022-12-06T08:53:25.909Z,3.40
2022-12-06T08:54:28.936Z,3.75
2022-12-06T08:55:31.040Z,3.67
2022-12-06T08:56:33.319Z,4.35
2022-12-06T08:57:35.480Z,3.65
2022-12-06T08:58:37.645Z,4.18
2022-12-06T08:59:39.865Z,4.03
2022-12-06T09:00:41.950Z,3.40
2022-12-06T09:01:44.765Z,4.25
2022-12-06T09:02:46.872Z,3.35
2022-12-06T09:03:49.202Z,3.50
2022-12-06T09:04:51.956Z,4.10
2022-12-06T09:05:54.251Z,3.35
2022-12-06T09:06:56.414Z,3.15
2022-12-06T09:07:58.668Z,3.50
2022-12-06T09:09:00.832Z,3.03
2022-12-06T09:10:03.498Z,3.95
2022-12-06T09:11:07.416Z,3.75
2022-12-06T09:12:09.550Z,3.03
2022-12-06T09:13:11.656Z,3.45
2022-12-06T09:14:20.965Z,2.47
2022-12-06T09:15:23.829Z,4.07
2022-12-06T09:16:26.013Z,2.97
2022-12-06T09:17:28.247Z,2.42
2022-12-06T09:18:30.354Z,3.55
2022-12-06T09:19:32.554Z,2.85
2022-12-06T09:20:34.640Z,3.70
2022-12-06T09:21:39.637Z,3.20
2022-12-06T09:22:41.904Z,3.30
2022-12-06T09:23:44.089Z,2.47
2022-12-06T09:24:46.240Z,3.30
2022-12-06T09:25:48.394Z,3.33
2022-12-06T09:26:50.515Z,2.97
2022-12-06T09:27:53.435Z,3.63
2022-12-06T09:28:56.762Z,3.78
2022-12-06T09:29:59.238Z,3.90
2022-12-06T09:31:02.748Z,3.40
2022-12-06T09:32:05.020Z,4.15
2022-12-06T09:33:07.294Z,2.90
2022-12-06T09:34:11.300Z,2.83
2022-12-06T09:35:15.600Z,3.25
2022-12-06T09:36:23.492Z,3.03
2022-12-06T09:37:25.746Z,2.78
2022-12-06T09:38:30.995Z,3.05
2022-12-06T09:39:39.611Z,2.55
2022-12-06T09:41:19.907Z,2.95
2022-12-06T09:43:05.708Z,3.15
2022-12-06T09:44:22.708Z,3.60
2022-12-06T09:45:43.036Z,2.70
2022-12-06T09:47:07.633Z,2.67
2022-12-06T09:48:18.702Z,2.75
2022-12-06T09:49:30.011Z,3.42
2022-12-06T09:50:40.924Z,3.10
2022-12-06T09:53:15.871Z,2.05
2022-12-06T09:54:30.761Z,3.00
2022-12-06T09:55:51.448Z,2.97
2022-12-06T09:57:08.781Z,2.80
2022-12-06T09:58:13.718Z,2.75
2022-12-06T09:59:48.594Z,3.55
2022-12-06T10:01:08.309Z,2.50
2022-12-06T10:02:44.350Z,2.63
2022-12-06T10:04:25.177Z,2.78
2022-12-06T10:05:37.297Z,3.05
2022-12-06T10:06:48.700Z,2.92
2022-12-06T10:08:19.980Z,2.65
2022-12-06T10:09:36.486Z,2.50
2022-12-06T10:11:05.320Z,2.28
2022-12-06T10:12:36.248Z,2.60
2022-12-06T10:13:57.197Z,3.03
2022-12-06T10:15:26.979Z,2.75
2022-12-06T10:16:55.773Z,2.15
2022-12-06T10:18:22.491Z,2.78
2022-12-06T10:19:30.369Z,2.55
2022-12-06T10:20:59.414Z,3.55
2022-12-06T10:22:25.664Z,2.25
2022-12-06T10:24:04.519Z,2.45
2022-12-06T10:25:23.796Z,2.38
2022-12-06T10:26:39.921Z,2.50
2022-12-06T10:28:15.885Z,2.33
2022-12-06T10:29:29.726Z,2.35
2022-12-06T10:30:34.852Z,3.53
2022-12-06T10:31:51.912Z,2.53
2022-12-06T10:33:05.569Z,3.10
2022-12-06T10:34:48.671Z,2.10
2022-12-06T10:35:59.909Z,2.25
2022-12-06T10:37:13.051Z,1.75
2022-12-06T10:38:33.926Z,2.80
2022-12-06T10:39:54.007Z,2.20
2022-12-06T10:41:21.499Z,1.85
2022-12-06T10:42:29.656Z,2.80
2022-12-06T10:44:09.122Z,1.90
2022-12-06T10:45:47.765Z,2.17
2022-12-06T10:47:06.583Z,2.88
2022-12-06T10:48:36.275Z,2.10
2022-12-06T10:49:53.408Z,2.03
2022-12-06T10:51:07.248Z,2.33
2022-12-06T10:52:18.454Z,1.73
2022-12-06T10:53:24.893Z,1.70
2022-12-06T10:54:53.194Z,1.67
2022-12-06T10:56:05.479Z,1.40
2022-12-06T10:57:39.507Z,1.90
2022-12-06T10:58:54.054Z,1.90
2022-12-06T11:00:04.101Z,1.60
2022-12-06T11:01:12.284Z,1.40
2022-12-06T11:02:24.671Z,1.50
2022-12-06T11:03:37.985Z,1.80
2022-12-06T11:04:42.238Z,1.80
2022-12-06T11:06:26.809Z,1.80
2022-12-06T11:07:38.069Z,1.98
2022-12-06T11:08:46.747Z,1.42
2022-12-06T11:09:54.613Z,1.55
2022-12-06T11:10:59.308Z,2.00
2022-12-06T11:12:02.387Z,1.83
2022-12-06T11:13:36.437Z,1.92
2022-12-06T11:14:46.630Z,1.92
2022-12-06T11:16:30.105Z,1.92
2022-12-06T11:17:43.264Z,1.67
2022-12-06T11:18:47.328Z,1.40
2022-12-06T11:19:52.151Z,1.70
2022-12-06T11:21:01.999Z,1.42
2022-12-06T11:22:33.415Z,1.55
2022-12-06T11:23:40.593Z,1.65
2022-12-06T11:25:02.464Z,1.38
2022-12-06T11:26:18.132Z,1.20
2022-12-06T11:27:31.915Z,1.58
2022-12-06T11:28:36.549Z,1.10
2022-12-06T11:29:38.657Z,1.17
2022-12-06T11:30:44.908Z,1.00
2022-12-06T11:31:51.934Z,1.15
2022-12-06T11:32:55.594Z,1.00
2022-12-06T11:33:59.975Z,0.70
2022-12-06T11:35:02.254Z,1.30
2022-12-06T11:36:07.353Z,1.00
2022-12-06T11:37:21.009Z,0.63
2022-12-06T11:38:23.771Z,1.15
2022-12-06T11:39:26.742Z,0.80
2022-12-06T11:40:32.505Z,0.85
2022-12-06T11:41:37.248Z,0.70
2022-12-06T11:42:39.425Z,0.90
2022-12-06T11:43:41.808Z,1.33
2022-12-06T11:44:50.103Z,0.70
2022-12-06T11:45:55.443Z,0.70
2022-12-06T11:47:02.864Z,0.70
2022-12-06T11:48:16.559Z,1.10
2022-12-06T11:49:26.722Z,0.80
2022-12-06T11:50:30.299Z,1.25
2022-12-06T11:51:32.516Z,0.93
2022-12-06T11:52:38.895Z,0.60
2022-12-06T11:53:45.302Z,1.20
2022-12-06T11:54:53.913Z,0.70
2022-12-06T11:56:01.048Z,1.05
2022-12-06T11:57:22.110Z,0.88
2022-12-06T11:58:30.368Z,0.85
2022-12-06T11:59:32.643Z,0.95
2022-12-06T12:00:35.041Z,0.90
2022-12-06T12:01:45.533Z,1.20
2022-12-06T12:02:50.373Z,0.70
2022-12-06T12:03:52.838Z,0.75
2022-12-06T12:04:55.037Z,0.70
2022-12-06T12:06:09.023Z,0.85
2022-12-06T12:07:17.989Z,0.80
2022-12-06T12:08:20.587Z,0.50
2022-12-06T12:09:23.192Z,0.90
2022-12-06T12:10:27.737Z,0.88
2022-12-06T12:11:32.551Z,0.68
2022-12-06T12:13:04.135Z,1.02
2022-12-06T12:14:37.735Z,0.47
2022-12-06T12:15:50.357Z,0.60
2022-12-06T12:16:58.814Z,0.70
2022-12-06T12:18:03.398Z,0.70
2022-12-06T12:19:32.581Z,0.57
2022-12-06T12:20:39.144Z,0.90
2022-12-06T12:21:42.544Z,0.43
2022-12-06T12:22:44.714Z,1.27
2022-12-06T12:23:47.641Z,1.00
2022-12-06T12:26:21.435Z,0.75
2022-12-06T12:27:38.621Z,0.82
2022-12-06T12:28:42.529Z,0.98
2022-12-06T12:29:44.645Z,0.88
2022-12-06T12:30:55.488Z,0.82
2022-12-06T12:33:07.078Z,0.80
2022-12-06T12:34:29.513Z,0.82
2022-12-06T12:35:37.490Z,0.98
2022-12-06T12:36:39.577Z,0.98
2022-12-06T12:37:41.780Z,1.15
2022-12-06T12:38:57.189Z,1.08
2022-12-06T12:40:02.014Z,0.98
2022-12-06T12:41:33.205Z,1.10
2022-12-06T12:42:36.533Z,1.13
2022-12-06T12:43:39.774Z,0.70
2022-12-06T12:44:46.157Z,1.10
2022-12-06T12:46:14.700Z,1.10
2022-12-06T12:47:20.703Z,0.80
2022-12-06T12:48:25.237Z,1.00
2022-12-06T12:49:36.292Z,1.10
2022-12-06T12:50:38.562Z,0.90
2022-12-06T12:51:46.438Z,1.02
2022-12-06T12:52:51.687Z,1.25
2022-12-06T12:53:57.827Z,0.80
2022-12-06T12:55:23.750Z,1.00
2022-12-06T12:56:26.228Z,1.20
2022-12-06T12:57:28.524Z,1.90
2022-12-06T12:58:35.854Z,0.98
2022-12-06T12:59:40.809Z,0.88
2022-12-06T13:00:47.776Z,0.93
2022-12-06T13:01:58.880Z,1.75
2022-12-06T13:03:28.540Z,1.02
2022-12-06T13:04:43.129Z,1.17
2022-12-06T13:05:49.440Z,1.00
2022-12-06T13:07:17.209Z,1.55
2022-12-06T13:08:24.991Z,1.30
2022-12-06T13:09:33.330Z,1.50
2022-12-06T13:10:38.453Z,1.50
2022-12-06T13:11:46.912Z,1.20
2022-12-06T13:12:54.345Z,1.20
2022-12-06T13:13:57.821Z,1.23
2022-12-06T13:15:13.161Z,1.40
2022-12-06T13:16:21.199Z,1.48
2022-12-06T13:17:26.471Z,1.50
2022-12-06T13:18:31.270Z,1.80
2022-12-06T13:19:39.066Z,1.83
2022-12-06T13:20:41.489Z,1.45
2022-12-06T13:21:45.269Z,1.15
2022-12-06T13:22:51.545Z,1.50
2022-12-06T13:24:00.798Z,1.60
2022-12-06T13:25:07.000Z,1.70
2022-12-06T13:26:22.669Z,1.45
2022-12-06T13:27:26.451Z,1.55
2022-12-06T13:28:35.345Z,1.55
2022-12-06T13:29:47.108Z,1.80
2022-12-06T13:30:53.229Z,1.40
2022-12-06T13:31:58.009Z,1.52
2022-12-06T13:33:19.234Z,1.13
2022-12-06T13:34:36.094Z,1.42
2022-12-06T13:36:02.429Z,1.40
2022-12-06T13:37:24.619Z,1.13
2022-12-06T13:38:38.934Z,1.85
2022-12-06T13:39:49.515Z,1.23
2022-12-06T13:40:53.993Z,1.08
2022-12-06T13:42:17.198Z,1.15
2022-12-06T13:43:25.045Z,1.23
2022-12-06T13:44:59.866Z,1.30
2022-12-06T13:46:14.243Z,1.92
2022-12-06T13:47:28.838Z,1.33
2022-12-06T13:48:54.920Z,1.10
2022-12-06T13:50:21.121Z,1.13
2022-12-06T13:51:32.511Z,1.13
2022-12-06T13:52:43.988Z,1.02
2022-12-06T13:54:03.922Z,1.35
2022-12-06T13:55:24.554Z,1.17
2022-12-06T13:56:28.224Z,1.17
2022-12-06T13:57:31.880Z,1.17
2022-12-06T13:58:33.952Z,1.85
2022-12-06T13:59:38.924Z,2.25
2022-12-06T14:00:41.075Z,2.22
2022-12-06T14:01:45.822Z,2.80
2022-12-06T14:02:47.994Z,2.35
2022-12-06T14:03:56.695Z,2.03
2022-12-06T14:04:58.989Z,2.42
2022-12-06T14:06:01.313Z,2.58
2022-12-06T14:08:13.459Z,2.05
2022-12-06T14:09:15.765Z,1.77
2022-12-06T14:10:17.900Z,1.00
2022-12-06T14:11:26.142Z,3.50
2022-12-06T14:12:28.861Z,1.27
2022-12-06T14:13:31.010Z,0.80
2022-12-06T14:14:33.679Z,1.30
2022-12-06T14:15:40.066Z,1.33
2022-12-06T14:17:26.720Z,2.20
2022-12-06T14:18:35.230Z,2.03
2022-12-06T14:19:45.973Z,4.70
2022-12-06T14:20:49.699Z,2.35
2022-12-06T14:22:00.432Z,2.70
2022-12-06T14:23:02.524Z,6.82
2022-12-06T14:24:04.989Z,11.05
2022-12-06T14:25:20.062Z,2.72
2022-12-06T14:26:28.733Z,1.90
2022-12-06T14:27:35.493Z,1.98
2022-12-06T14:28:37.668Z,1.52
2022-12-06T14:29:41.069Z,1.40
2022-12-06T14:30:44.569Z,1.35
2022-12-06T14:31:50.560Z,0.82
2022-12-06T14:32:55.368Z,1.25
2022-12-06T14:33:57.598Z,1.25
2022-12-06T14:35:13.150Z,1.38
2022-12-06T14:36:30.312Z,1.90
2022-12-06T14:37:32.649Z,20.48
2022-12-06T14:38:35.101Z,36.47
2022-12-06T14:39:37.463Z,25.95
2022-12-06T14:41:01.156Z,21.98
2022-12-06T14:42:34.022Z,26.05
2022-12-06T14:43:36.520Z,8.13
2022-12-06T14:44:40.125Z,3.72
2022-12-06T14:45:45.114Z,3.20
2022-12-06T14:46:48.830Z,2.22
2022-12-06T14:47:51.137Z,2.75
2022-12-06T14:49:12.131Z,4.22
2022-12-06T14:51:37.266Z,2.63
2022-12-06T14:53:03.739Z,1.95
2022-12-06T14:54:40.960Z,2.25
2022-12-06T14:55:59.585Z,1.60
2022-12-06T14:57:02.220Z,2.00
2022-12-06T14:58:20.658Z,2.20
2022-12-06T15:00:03.147Z,2.08
2022-12-06T15:00:53.681Z,2.30
2022-12-06T15:01:56.625Z,2.20
2022-12-06T15:03:07.777Z,2.10
2022-12-06T15:04:25.751Z,2.60
2022-12-06T15:05:41.405Z,2.95
2022-12-06T15:06:53.033Z,3.28
2022-12-06T15:07:55.325Z,2.85
2022-12-06T15:08:57.434Z,3.22
2022-12-06T15:10:25.677Z,2.58
2022-12-06T15:11:55.288Z,2.10